Terminal Aerodrome Forecast
Issued by NWS

Home | Current Version | Previous Version | Graphics & Text | Print | Product List | Glossary On
Versions: 1 2 3 4 5 6 7 8 9 10 11 12 13 14 15 16 17 18 19 20 21 22 23 24 25 26 27 28 29 30
000
FTUS43 KLOT 140520
TAFORD
TAF
KORD 140520Z 1406/1512 35015G25KT P6SM -SN SCT025 OVC035
      TEMPO 1406/1407 3SM -SN BKN015
     FM140900 33011KT P6SM SCT025 SCT250
     FM142000 29008KT P6SM SCT250
     FM150000 24007KT P6SM BKN045 BKN060=

USA.gov is the U.S. government's official web portal to all federal, state and local government web resources and services.